sensor_id;sensor_type;location;lat;lon;timestamp;temperature;humidity
9265;DHT22;4669;49.594;10.958;2023-03-14T05:29:43;9.80;99.90
9265;DHT22;4669;49.594;10.958;2023-03-14T05:35:05;9.80;99.90
9265;DHT22;4669;49.594;10.958;2023-03-14T05:40:16;9.80;99.90
9265;DHT22;4669;49.594;10.958;2023-03-14T05:45:32;9.80;99.90
9265;DHT22;4669;49.594;10.958;2023-03-14T05:50:57;9.70;99.90
9265;DHT22;4669;49.594;10.958;2023-03-14T05:56:18;9.70;99.90
9265;DHT22;4669;49.594;10.958;2023-03-14T06:01:38;9.70;99.90
9265;DHT22;4669;49.594;10.958;2023-03-14T06:06:52;9.70;99.90
9265;DHT22;4669;49.594;10.958;2023-03-14T06:11:55;9.70;99.90
9265;DHT22;4669;49.594;10.958;2023-03-14T06:16:58;9.70;99.90
9265;DHT22;4669;49.594;10.958;2023-03-14T06:22:03;9.80;99.90
9265;DHT22;4669;49.594;10.958;2023-03-14T06:27:08;9.80;99.90
9265;DHT22;4669;49.594;10.958;2023-03-14T06:32:11;9.80;99.90
9265;DHT22;4669;49.594;10.958;2023-03-14T06:37:13;9.80;99.90
9265;DHT22;4669;49.594;10.958;2023-03-14T06:42:16;9.90;99.90
9265;DHT22;4669;49.594;10.958;2023-03-14T06:47:20;9.90;99.90
9265;DHT22;4669;49.594;10.958;2023-03-14T06:52:22;10.00;99.90
9265;DHT22;4669;49.594;10.958;2023-03-14T06:57:24;10.00;99.90
9265;DHT22;4669;49.594;10.958;2023-03-14T07:02:28;10.10;99.90
9265;DHT22;4669;49.594;10.958;2023-03-14T07:07:30;10.30;99.90
9265;DHT22;4669;49.594;10.958;2023-03-14T07:12:32;10.30;99.90
9265;DHT22;4669;49.594;10.958;2023-03-14T07:17:35;10.30;99.90
9265;DHT22;4669;49.594;10.958;2023-03-14T07:22:39;10.30;99.90
9265;DHT22;4669;49.594;10.958;2023-03-14T07:27:43;10.30;99.90
9265;DHT22;4669;49.594;10.958;2023-03-14T07:32:47;10.30;99.90
9265;DHT22;4669;49.594;10.958;2023-03-14T07:37:49;10.40;99.90
9265;DHT22;4669;49.594;10.958;2023-03-14T07:42:56;10.30;99.90
9265;DHT22;4669;49.594;10.958;2023-03-14T07:48:03;10.40;99.90
9265;DHT22;4669;49.594;10.958;2023-03-14T07:53:05;10.40;99.90
9265;DHT22;4669;49.594;10.958;2023-03-14T07:58:07;10.50;99.90
9265;DHT22;4669;49.594;10.958;2023-03-14T08:03:10;10.50;99.90
9265;DHT22;4669;49.594;10.958;2023-03-14T08:08:12;10.50;99.90
9265;DHT22;4669;49.594;10.958;2023-03-14T08:13:14;10.50;99.90
9265;DHT22;4669;49.594;10.958;2023-03-14T08:18:17;10.70;99.90
9265;DHT22;4669;49.594;10.958;2023-03-14T08:23:19;10.80;99.90
9265;DHT22;4669;49.594;10.958;2023-03-14T08:28:21;10.90;99.90
9265;DHT22;4669;49.594;10.958;2023-03-14T08:33:26;11.00;99.90
9265;DHT22;4669;49.594;10.958;2023-03-14T08:38:28;11.10;99.90
9265;DHT22;4669;49.594;10.958;2023-03-14T08:43:30;11.20;99.90
9265;DHT22;4669;49.594;10.958;2023-03-14T08:48:34;11.30;99.90
9265;DHT22;4669;49.594;10.958;2023-03-14T08:53:36;11.40;99.90
9265;DHT22;4669;49.594;10.958;2023-03-14T08:58:38;11.50;99.90
9265;DHT22;4669;49.594;10.958;2023-03-14T09:03:43;11.60;99.90
9265;DHT22;4669;49.594;10.958;2023-03-14T09:08:46;11.70;99.90
9265;DHT22;4669;49.594;10.958;2023-03-14T09:13:48;11.90;99.90
9265;DHT22;4669;49.594;10.958;2023-03-14T09:18:52;11.90;99.90
9265;DHT22;4669;49.594;10.958;2023-03-14T09:23:55;11.90;99.90
9265;DHT22;4669;49.594;10.958;2023-03-14T09:28:57;11.90;99.90
9265;DHT22;4669;49.594;10.958;2023-03-14T09:34:00;11.90;99.90
9265;DHT22;4669;49.594;10.958;2023-03-14T09:39:02;12.00;99.90
9265;DHT22;4669;49.594;10.958;2023-03-14T09:44:08;12.10;99.90
9265;DHT22;4669;49.594;10.958;2023-03-14T09:49:19;12.10;99.90
9265;DHT22;4669;49.594;10.958;2023-03-14T09:54:34;12.00;99.90
9265;DHT22;4669;49.594;10.958;2023-03-14T09:59:37;12.00;99.90
9265;DHT22;4669;49.594;10.958;2023-03-14T10:04:42;12.00;99.90
9265;DHT22;4669;49.594;10.958;2023-03-14T10:09:48;12.00;99.90
9265;DHT22;4669;49.594;10.958;2023-03-14T10:14:52;12.00;99.90
9265;DHT22;4669;49.594;10.958;2023-03-14T10:19:57;11.90;99.90
9265;DHT22;4669;49.594;10.958;2023-03-14T10:25:02;11.90;99.90
9265;DHT22;4669;49.594;10.958;2023-03-14T10:30:07;11.90;99.90
9265;DHT22;4669;49.594;10.958;2023-03-14T10:35:21;12.00;99.90
9265;DHT22;4669;49.594;10.958;2023-03-14T10:40:27;12.20;99.90
9265;DHT22;4669;49.594;10.958;2023-03-14T10:45:33;12.50;99.90
9265;DHT22;4669;49.594;10.958;2023-03-14T10:50:37;12.70;99.90
9265;DHT22;4669;49.594;10.958;2023-03-14T10:55:49;12.80;99.90
9265;DHT22;4669;49.594;10.958;2023-03-14T11:00:59;12.80;99.90
9265;DHT22;4669;49.594;10.958;2023-03-14T11:06:06;12.70;99.90
9265;DHT22;4669;49.594;10.958;2023-03-14T11:11:18;12.70;99.90
9265;DHT22;4669;49.594;10.958;2023-03-14T11:16:26;12.80;99.90
9265;DHT22;4669;49.594;10.958;2023-03-14T11:21:36;12.90;99.90
9265;DHT22;4669;49.594;10.958;2023-03-14T11:26:43;13.00;99.90
9265;DHT22;4669;49.594;10.958;2023-03-14T11:31:49;13.00;99.90
9265;DHT22;4669;49.594;10.958;2023-03-14T11:36:55;13.00;99.90
9265;DHT22;4669;49.594;10.958;2023-03-14T11:42:00;12.90;99.90
9265;DHT22;4669;49.594;10.958;2023-03-14T11:47:06;12.90;99.90
9265;DHT22;4669;49.594;10.958;2023-03-14T11:52:17;13.00;99.90
9265;DHT22;4669;49.594;10.958;2023-03-14T11:57:23;13.10;99.90
9265;DHT22;4669;49.594;10.958;2023-03-14T12:02:32;13.10;99.90
9265;DHT22;4669;49.594;10.958;2023-03-14T12:07:42;13.20;99.90
9265;DHT22;4669;49.594;10.958;2023-03-14T12:12:50;13.20;99.90
9265;DHT22;4669;49.594;10.958;2023-03-14T12:17:54;13.20;99.90
9265;DHT22;4669;49.594;10.958;2023-03-14T12:23:03;13.20;99.90
9265;DHT22;4669;49.594;10.958;2023-03-14T12:28:18;13.30;99.90
9265;DHT22;4669;49.594;10.958;2023-03-14T12:33:29;13.30;99.90
9265;DHT22;4669;49.594;10.958;2023-03-14T12:38:45;13.40;99.90
9265;DHT22;4669;49.594;10.958;2023-03-14T12:43:49;13.40;99.90
9265;DHT22;4669;49.594;10.958;2023-03-14T12:48:55;13.20;99.90
9265;DHT22;4669;49.594;10.958;2023-03-14T12:54:25;13.00;99.90
9265;DHT22;4669;49.594;10.958;2023-03-14T12:59:31;13.00;99.90
9265;DHT22;4669;49.594;10.958;2023-03-14T13:04:36;12.90;99.90
9265;DHT22;4669;49.594;10.958;2023-03-14T13:09:53;12.60;99.90
9265;DHT22;4669;49.594;10.958;2023-03-14T13:14:58;12.30;99.90
9265;DHT22;4669;49.594;10.958;2023-03-14T13:20:03;12.30;99.90
9265;DHT22;4669;49.594;10.958;2023-03-14T13:25:11;12.00;99.90
9265;DHT22;4669;49.594;10.958;2023-03-14T13:30:15;11.80;99.90
9265;DHT22;4669;49.594;10.958;2023-03-14T13:35:20;11.60;99.90
9265;DHT22;4669;49.594;10.958;2023-03-14T13:40:30;11.50;99.90
9265;DHT22;4669;49.594;10.958;2023-03-14T13:45:46;11.30;99.90
9265;DHT22;4669;49.594;10.958;2023-03-14T13:50:52;11.30;99.90
9265;DHT22;4669;49.594;10.958;2023-03-14T13:55:56;11.30;99.90
9265;DHT22;4669;49.594;10.958;2023-03-14T14:01:06;11.20;99.90
9265;DHT22;4669;49.594;10.958;2023-03-14T14:06:22;11.10;99.90
9265;DHT22;4669;49.594;10.958;2023-03-14T14:11:38;11.00;99.90
9265;DHT22;4669;49.594;10.958;2023-03-14T14:16:44;10.90;99.90
9265;DHT22;4669;49.594;10.958;2023-03-14T14:21:47;10.70;99.90
9265;DHT22;4669;49.594;10.958;2023-03-14T14:26:53;10.50;99.90
9265;DHT22;4669;49.594;10.958;2023-03-14T14:32:11;10.40;99.90
9265;DHT22;4669;49.594;10.958;2023-03-14T14:37:20;10.10;99.90
9265;DHT22;4669;49.594;10.958;2023-03-14T14:42:27;9.50;99.90
9265;DHT22;4669;49.594;10.958;2023-03-14T14:47:30;8.80;99.90
9265;DHT22;4669;49.594;10.958;2023-03-14T14:52:37;8.50;99.90
9265;DHT22;4669;49.594;10.958;2023-03-14T14:57:48;8.40;99.90
9265;DHT22;4669;49.594;10.958;2023-03-14T15:02:52;8.40;99.90
9265;DHT22;4669;49.594;10.958;2023-03-14T15:07:55;8.30;99.90
9265;DHT22;4669;49.594;10.958;2023-03-14T15:12:59;8.30;99.90
9265;DHT22;4669;49.594;10.958;2023-03-14T15:18:01;8.30;99.90
9265;DHT22;4669;49.594;10.958;2023-03-14T15:23:07;8.20;99.90
9265;DHT22;4669;49.594;10.958;2023-03-14T15:28:21;8.10;99.90
9265;DHT22;4669;49.594;10.958;2023-03-14T15:33:25;7.90;99.90
9265;DHT22;4669;49.594;10.958;2023-03-14T15:38:27;7.90;99.90
9265;DHT22;4669;49.594;10.958;2023-03-14T15:43:30;8.00;99.90
9265;DHT22;4669;49.594;10.958;2023-03-14T15:48:32;7.90;99.90
9265;DHT22;4669;49.594;10.958;2023-03-14T15:53:35;7.70;99.90
9265;DHT22;4669;49.594;10.958;2023-03-14T15:58:39;7.60;99.90
9265;DHT22;4669;49.594;10.958;2023-03-14T16:03:43;7.50;99.90
9265;DHT22;4669;49.594;10.958;2023-03-14T16:08:46;7.50;99.90
9265;DHT22;4669;49.594;10.958;2023-03-14T16:13:49;7.40;99.90
9265;DHT22;4669;49.594;10.958;2023-03-14T16:18:51;7.50;99.90
9265;DHT22;4669;49.594;10.958;2023-03-14T16:23:53;7.50;99.90
9265;DHT22;4669;49.594;10.958;2023-03-14T16:28:57;7.30;99.90
9265;DHT22;4669;49.594;10.958;2023-03-14T16:34:01;7.30;99.90
9265;DHT22;4669;49.594;10.958;2023-03-14T16:39:04;7.20;99.90
9265;DHT22;4669;49.594;10.958;2023-03-14T16:44:07;7.30;99.90
9265;DHT22;4669;49.594;10.958;2023-03-14T16:49:09;7.20;99.90
9265;DHT22;4669;49.594;10.958;2023-03-14T16:54:11;7.20;99.90
9265;DHT22;4669;49.594;10.958;2023-03-14T16:59:15;7.20;99.90
9265;DHT22;4669;49.594;10.958;2023-03-14T17:04:17;7.30;99.90
9265;DHT22;4669;49.594;10.958;2023-03-14T17:09:19;7.30;99.90
9265;DHT22;4669;49.594;10.958;2023-03-14T17:14:22;7.30;99.90
9265;DHT22;4669;49.594;10.958;2023-03-14T17:19:26;7.40;99.90
9265;DHT22;4669;49.594;10.958;2023-03-14T17:24:28;7.20;99.90
9265;DHT22;4669;49.594;10.958;2023-03-14T17:29:31;6.90;99.90
9265;DHT22;4669;49.594;10.958;2023-03-14T17:34:33;6.60;99.90
9265;DHT22;4669;49.594;10.958;2023-03-14T17:39:35;6.50;99.90
9265;DHT22;4669;49.594;10.958;2023-03-14T17:44:39;6.40;99.90
9265;DHT22;4669;49.594;10.958;2023-03-14T17:49:41;6.50;99.90
9265;DHT22;4669;49.594;10.958;2023-03-14T17:54:43;6.50;99.90
9265;DHT22;4669;49.594;10.958;2023-03-14T17:59:46;6.60;99.90
9265;DHT22;4669;49.594;10.958;2023-03-14T18:04:49;6.60;99.90
9265;DHT22;4669;49.594;10.958;2023-03-14T18:09:52;6.60;99.90
9265;DHT22;4669;49.594;10.958;2023-03-14T18:14:55;6.60;99.90
9265;DHT22;4669;49.594;10.958;2023-03-14T18:19:57;6.60;99.90
9265;DHT22;4669;49.594;10.958;2023-03-14T18:24:59;6.60;99.90
9265;DHT22;4669;49.594;10.958;2023-03-14T18:30:03;6.50;99.90
9265;DHT22;4669;49.594;10.958;2023-03-14T18:35:06;6.60;99.90
9265;DHT22;4669;49.594;10.958;2023-03-14T18:40:09;6.70;99.90
9265;DHT22;4669;49.594;10.958;2023-03-14T18:45:14;6.80;99.90
9265;DHT22;4669;49.594;10.958;2023-03-14T18:50:16;6.80;99.90
9265;DHT22;4669;49.594;10.958;2023-03-14T18:55:18;6.80;99.90
9265;DHT22;4669;49.594;10.958;2023-03-14T19:00:22;6.90;99.90
9265;DHT22;4669;49.594;10.958;2023-03-14T19:05:26;6.90;99.90
9265;DHT22;4669;49.594;10.958;2023-03-14T19:10:28;6.90;99.90
9265;DHT22;4669;49.594;10.958;2023-03-14T19:15:34;6.80;99.90
9265;DHT22;4669;49.594;10.958;2023-03-14T19:20:36;6.90;99.90
9265;DHT22;4669;49.594;10.958;2023-03-14T19:25:38;6.80;99.90
9265;DHT22;4669;49.594;10.958;2023-03-14T19:30:42;6.80;99.90
9265;DHT22;4669;49.594;10.958;2023-03-14T19:35:45;6.90;99.90
9265;DHT22;4669;49.594;10.958;2023-03-14T19:40:49;6.90;99.90
9265;DHT22;4669;49.594;10.958;2023-03-14T19:45:54;6.90;99.90
9265;DHT22;4669;49.594;10.958;2023-03-14T19:50:58;6.80;99.90
9265;DHT22;4669;49.594;10.958;2023-03-14T19:56:01;6.80;99.90
9265;DHT22;4669;49.594;10.958;2023-03-14T20:01:05;6.80;99.90
9265;DHT22;4669;49.594;10.958;2023-03-14T20:06:09;6.80;99.90
9265;DHT22;4669;49.594;10.958;2023-03-14T20:11:12;6.90;99.90
9265;DHT22;4669;49.594;10.958;2023-03-14T20:16:15;6.90;99.90
9265;DHT22;4669;49.594;10.958;2023-03-14T20:21:17;6.90;99.90
9265;DHT22;4669;49.594;10.958;2023-03-14T20:26:19;6.90;99.90
9265;DHT22;4669;49.594;10.958;2023-03-14T20:31:22;7.00;99.90
9265;DHT22;4669;49.594;10.958;2023-03-14T20:36:25;7.00;99.90
9265;DHT22;4669;49.594;10.958;2023-03-14T20:41:27;7.10;99.90
9265;DHT22;4669;49.594;10.958;2023-03-14T20:46:30;7.10;99.90
9265;DHT22;4669;49.594;10.958;2023-03-14T20:51:32;7.20;99.90
9265;DHT22;4669;49.594;10.958;2023-03-14T20:56:34;7.10;99.90
9265;DHT22;4669;49.594;10.958;2023-03-14T21:01:38;7.20;99.90
9265;DHT22;4669;49.594;10.958;2023-03-14T21:06:40;7.20;99.90
9265;DHT22;4669;49.594;10.958;2023-03-14T21:11:42;7.10;99.90
9265;DHT22;4669;49.594;10.958;2023-03-14T21:16:48;6.70;99.90
9265;DHT22;4669;49.594;10.958;2023-03-14T21:21:55;6.40;99.90
9265;DHT22;4669;49.594;10.958;2023-03-14T21:26:57;5.90;99.90
9265;DHT22;4669;49.594;10.958;2023-03-14T21:32:01;5.60;99.90
9265;DHT22;4669;49.594;10.958;2023-03-14T21:37:03;5.30;99.90
9265;DHT22;4669;49.594;10.958;2023-03-14T21:42:05;5.30;99.90
9265;DHT22;4669;49.594;10.958;2023-03-14T21:47:10;5.20;99.90
9265;DHT22;4669;49.594;10.958;2023-03-14T21:52:13;5.00;99.90
9265;DHT22;4669;49.594;10.958;2023-03-14T21:57:15;5.00;99.90
9265;DHT22;4669;49.594;10.958;2023-03-14T22:02:19;4.90;99.90
9265;DHT22;4669;49.594;10.958;2023-03-14T22:07:21;4.80;99.90
9265;DHT22;4669;49.594;10.958;2023-03-14T22:12:23;5.00;99.90
9265;DHT22;4669;49.594;10.958;2023-03-14T22:17:27;5.10;99.90
9265;DHT22;4669;49.594;10.958;2023-03-14T22:22:29;5.20;99.90
9265;DHT22;4669;49.594;10.958;2023-03-14T22:27:31;5.40;99.90
9265;DHT22;4669;49.594;10.958;2023-03-14T22:32:34;5.50;99.90
9265;DHT22;4669;49.594;10.958;2023-03-14T22:37:36;5.60;99.90
9265;DHT22;4669;49.594;10.958;2023-03-14T22:42:38;5.60;99.90
9265;DHT22;4669;49.594;10.958;2023-03-14T22:47:41;5.50;99.90
9265;DHT22;4669;49.594;10.958;2023-03-14T22:52:43;5.40;99.90
9265;DHT22;4669;49.594;10.958;2023-03-14T22:57:45;5.20;99.90
